createdAt,value
2019-04-04T00:01:48.103Z,5.73
2019-04-04T00:04:16.124Z,5.70
2019-04-04T00:06:44.171Z,5.30
2019-04-04T00:09:12.217Z,5.93
2019-04-04T00:11:40.286Z,5.50
2019-04-04T00:14:08.349Z,6.30
2019-04-04T00:16:36.391Z,5.27
2019-04-04T00:19:04.450Z,6.23
2019-04-04T00:21:33.978Z,6.03
2019-04-04T00:24:02.299Z,6.80
2019-04-04T00:26:30.363Z,6.43
2019-04-04T00:29:01.265Z,5.60
2019-04-04T00:31:28.218Z,5.70
2019-04-04T00:33:56.575Z,6.37
2019-04-04T00:36:24.679Z,5.80
2019-04-04T00:38:52.727Z,5.77
2019-04-04T00:41:20.785Z,5.90
2019-04-04T00:43:49.902Z,5.80
2019-04-04T00:46:18.594Z,5.20
2019-04-04T00:48:46.642Z,6.53
2019-04-04T00:51:15.630Z,6.17
2019-04-04T00:53:43.730Z,5.93
2019-04-04T00:56:11.791Z,5.93
2019-04-04T00:58:39.850Z,6.90
2019-04-04T01:01:07.962Z,6.73
2019-04-04T01:03:36.016Z,6.73
2019-04-04T01:06:04.116Z,5.97
2019-04-04T01:08:32.163Z,6.97
2019-04-04T01:11:00.214Z,8.20
2019-04-04T01:13:28.258Z,7.97
2019-04-04T01:15:56.326Z,7.80
2019-04-04T01:18:25.337Z,7.93
2019-04-04T01:20:54.412Z,7.40
2019-04-04T01:23:22.483Z,7.73
2019-04-04T01:25:50.605Z,8.13
2019-04-04T01:28:18.673Z,7.90
2019-04-04T01:30:46.748Z,8.13
2019-04-04T01:33:14.795Z,8.97
2019-04-04T01:35:42.850Z,8.83
2019-04-04T01:38:10.886Z,8.30
2019-04-04T01:40:58.300Z,8.50
2019-04-04T01:43:26.535Z,8.77
2019-04-04T01:45:54.571Z,9.13
2019-04-04T01:48:22.637Z,9.80
2019-04-04T01:50:53.444Z,10.33
2019-04-04T01:53:20.530Z,10.30
2019-04-04T01:55:48.594Z,10.07
2019-04-04T01:58:16.648Z,10.33
2019-04-04T02:00:46.010Z,9.80
2019-04-04T02:03:14.599Z,10.60
2019-04-04T02:05:42.647Z,10.63
2019-04-04T02:08:10.710Z,10.97
2019-04-04T02:10:38.782Z,11.10
2019-04-04T02:13:09.629Z,10.43
2019-04-04T02:15:36.611Z,10.90
2019-04-04T02:18:04.681Z,11.63
2019-04-04T02:20:32.809Z,12.77
2019-04-04T02:23:01.558Z,12.30
2019-04-04T02:25:32.030Z,13.10
2019-04-04T02:28:00.699Z,13.37
2019-04-04T02:30:29.119Z,13.40
2019-04-04T02:33:00.480Z,13.97
2019-04-04T02:35:26.959Z,13.50
2019-04-04T02:37:56.066Z,14.30
2019-04-04T02:40:24.386Z,15.80
2019-04-04T02:42:55.330Z,16.73
2019-04-04T02:45:22.201Z,15.93
2019-04-04T02:48:09.591Z,17.17
2019-04-04T02:50:37.739Z,16.70
2019-04-04T02:53:05.928Z,15.33
2019-04-04T02:55:33.958Z,16.20
2019-04-04T02:58:02.072Z,16.67
2019-04-04T03:00:30.117Z,16.03
2019-04-04T03:02:58.233Z,14.80
2019-04-04T03:05:26.337Z,17.23
2019-04-04T03:07:54.382Z,16.53
2019-04-04T03:10:22.457Z,17.10
2019-04-04T03:12:50.579Z,16.63
2019-04-04T03:15:18.648Z,17.33
2019-04-04T03:17:46.709Z,16.97
2019-04-04T03:20:17.329Z,16.97
2019-04-04T03:22:44.625Z,17.37
2019-04-04T03:25:14.794Z,17.80
2019-04-04T03:27:42.451Z,16.93
2019-04-04T03:30:14.405Z,18.43
2019-04-04T03:32:40.320Z,18.57
2019-04-04T03:35:08.464Z,18.30
2019-04-04T03:37:40.566Z,18.87
2019-04-04T03:40:06.464Z,17.33
2019-04-04T03:42:34.489Z,18.93
2019-04-04T03:45:02.831Z,19.87
2019-04-04T03:47:30.871Z,19.87
2019-04-04T03:49:58.924Z,19.30
2019-04-04T03:52:26.978Z,19.47
2019-04-04T03:54:56.295Z,19.80
2019-04-04T03:57:24.659Z,20.37
2019-04-04T03:59:52.739Z,20.17
2019-04-04T04:02:20.801Z,21.70
2019-04-04T04:04:48.847Z,19.83
2019-04-04T04:07:16.906Z,20.90
2019-04-04T04:09:44.978Z,20.40
2019-04-04T04:12:13.078Z,20.13
2019-04-04T04:14:41.126Z,20.33
2019-04-04T04:17:11.535Z,20.43
2019-04-04T04:19:38.944Z,19.47
2019-04-04T04:22:07.003Z,20.10
2019-04-04T04:24:35.058Z,20.10
2019-04-04T04:27:03.129Z,19.87
2019-04-04T04:29:31.186Z,19.63
2019-04-04T04:31:59.243Z,20.10
2019-04-04T04:34:27.305Z,20.93
2019-04-04T04:36:55.360Z,20.23
2019-04-04T04:39:23.431Z,22.47
2019-04-04T04:41:54.129Z,21.50
2019-04-04T04:44:21.257Z,21.80
2019-04-04T04:46:50.415Z,21.50
2019-04-04T04:49:22.947Z,20.53
2019-04-04T04:51:51.702Z,20.07
2019-04-04T04:54:20.475Z,22.07
2019-04-04T04:56:49.664Z,21.50
2019-04-04T04:59:17.724Z,20.43
2019-04-04T05:01:45.767Z,21.80
2019-04-04T05:04:13.825Z,20.90
2019-04-04T05:06:41.900Z,21.73
2019-04-04T05:09:09.946Z,20.83
2019-04-04T05:11:38.011Z,21.20
2019-04-04T05:14:06.066Z,21.67
2019-04-04T05:16:53.448Z,21.83
2019-04-04T05:19:21.578Z,20.63
2019-04-04T05:21:49.693Z,21.43
2019-04-04T05:24:18.131Z,21.20
2019-04-04T05:26:46.787Z,21.00
2019-04-04T05:29:14.830Z,21.27
2019-04-04T05:31:42.922Z,19.77
2019-04-04T05:34:10.946Z,21.10
2019-04-04T05:36:38.998Z,19.43
2019-04-04T05:39:07.601Z,19.67
2019-04-04T05:41:37.360Z,19.53
2019-04-04T05:44:09.042Z,19.97
2019-04-04T05:46:35.477Z,19.53
2019-04-04T05:49:07.814Z,20.30
2019-04-04T05:51:36.437Z,20.93
2019-04-04T05:54:07.035Z,19.80
2019-04-04T05:56:34.295Z,20.83
2019-04-04T05:59:02.389Z,19.97
2019-04-04T06:01:30.553Z,19.97
2019-04-04T06:03:58.598Z,20.47
2019-04-04T06:06:26.659Z,20.03
2019-04-04T06:08:54.770Z,18.57
2019-04-04T06:11:22.839Z,20.47
2019-04-04T06:13:50.898Z,19.57
2019-04-04T06:16:18.942Z,17.30
2019-04-04T06:18:49.144Z,17.47
2019-04-04T06:21:18.491Z,15.97
2019-04-04T06:23:46.707Z,17.85
2019-04-04T06:26:14.855Z,16.77
2019-04-04T06:28:44.398Z,14.23
2019-04-04T06:31:12.700Z,14.63
2019-04-04T06:33:40.761Z,14.77
2019-04-04T06:36:08.828Z,13.93
2019-04-04T06:38:36.918Z,12.80
2019-04-04T06:41:04.974Z,10.47
2019-04-04T06:43:33.021Z,9.37
2019-04-04T06:46:01.091Z,15.97
2019-04-04T06:48:29.341Z,7.63
2019-04-04T06:50:58.922Z,7.57
2019-04-04T06:53:26.967Z,8.97
2019-04-04T06:55:55.031Z,7.80
2019-04-04T06:58:23.087Z,6.60
2019-04-04T07:00:51.132Z,5.83
2019-04-04T07:03:19.191Z,5.93
2019-04-04T07:05:47.236Z,6.20
2019-04-04T07:08:15.900Z,6.03
2019-04-04T07:10:44.131Z,6.53
2019-04-04T07:13:21.495Z,6.20
2019-04-04T07:15:46.956Z,6.17
2019-04-04T07:18:12.342Z,6.13
2019-04-04T07:20:40.953Z,6.53
2019-04-04T07:23:08.990Z,5.60
2019-04-04T07:25:38.098Z,4.87
2019-04-04T07:28:06.826Z,4.87
2019-04-04T07:30:34.954Z,5.67
2019-04-04T07:33:03.005Z,4.90
2019-04-04T07:35:31.060Z,5.67
2019-04-04T07:37:59.182Z,6.20
2019-04-04T07:40:27.243Z,6.50
2019-04-04T07:42:55.277Z,5.70
2019-04-04T07:45:25.846Z,5.60
2019-04-04T07:47:53.197Z,4.97
2019-04-04T07:50:21.273Z,5.87
2019-04-04T07:52:49.408Z,5.53
2019-04-04T07:55:17.563Z,5.53
2019-04-04T07:57:45.602Z,6.27
2019-04-04T08:00:13.728Z,6.23
2019-04-04T08:02:41.771Z,6.27
2019-04-04T08:05:12.913Z,5.57
2019-04-04T08:07:39.673Z,6.30
2019-04-04T08:10:19.975Z,6.30
2019-04-04T08:12:37.791Z,6.23
2019-04-04T08:15:06.700Z,6.07
2019-04-04T08:17:34.759Z,5.90
2019-04-04T08:20:03.277Z,6.13
2019-04-04T08:22:31.319Z,7.23
2019-04-04T08:24:59.370Z,6.90
2019-04-04T08:27:27.418Z,6.40
2019-04-04T08:29:55.481Z,7.33
2019-04-04T08:32:23.526Z,6.60
2019-04-04T08:34:51.568Z,7.03
2019-04-04T08:37:19.666Z,6.90
2019-04-04T08:39:47.782Z,6.47
2019-04-04T08:42:15.819Z,7.10
2019-04-04T08:44:43.947Z,6.50
2019-04-04T08:47:11.987Z,7.23
2019-04-04T08:49:40.035Z,6.77
2019-04-04T08:52:16.546Z,7.10
2019-04-04T08:54:37.853Z,7.03
2019-04-04T08:57:05.941Z,8.23
2019-04-04T08:59:33.986Z,9.43
2019-04-04T09:02:02.052Z,10.53
2019-04-04T09:04:30.100Z,9.50
2019-04-04T09:06:58.160Z,10.27
2019-04-04T09:09:26.535Z,9.00
2019-04-04T09:11:54.659Z,10.10
2019-04-04T09:14:22.710Z,7.47
2019-04-04T09:16:50.763Z,9.30
2019-04-04T09:19:18.827Z,8.27
2019-04-04T09:21:46.904Z,8.50
2019-04-04T09:24:14.985Z,6.60
2019-04-04T09:26:44.032Z,7.77
2019-04-04T09:29:12.083Z,6.53
2019-04-04T09:31:40.141Z,7.23
2019-04-04T09:34:08.183Z,6.57
2019-04-04T09:36:36.246Z,5.00
2019-04-04T09:39:05.964Z,4.90
2019-04-04T09:41:34.003Z,5.17
2019-04-04T09:44:02.050Z,3.50
2019-04-04T09:46:30.102Z,2.83
2019-04-04T09:48:58.147Z,3.40
2019-04-04T09:51:26.763Z,3.10
2019-04-04T09:53:54.811Z,3.27
2019-04-04T09:56:22.846Z,3.00
2019-04-04T09:58:50.902Z,3.00
2019-04-04T10:01:18.954Z,2.10
2019-04-04T10:03:47.007Z,2.87
2019-04-04T10:06:15.150Z,2.60
2019-04-04T10:08:43.194Z,2.40
2019-04-04T10:11:11.231Z,2.20
2019-04-04T10:13:39.292Z,2.30
2019-04-04T10:16:07.402Z,2.13
2019-04-04T10:18:35.447Z,1.93
2019-04-04T10:21:11.644Z,1.93
2019-04-04T10:23:33.293Z,1.90
2019-04-04T10:26:01.330Z,1.90
2019-04-04T10:28:29.382Z,1.50
2019-04-04T10:30:57.434Z,1.90
2019-04-04T10:33:25.483Z,1.47
2019-04-04T10:35:53.541Z,1.47
2019-04-04T10:38:21.965Z,1.50
2019-04-04T10:40:50.022Z,1.30
2019-04-04T10:43:18.062Z,1.30
2019-04-04T10:45:46.098Z,1.30
2019-04-04T10:48:14.157Z,1.53
2019-04-04T10:50:42.812Z,1.97
2019-04-04T10:53:10.960Z,2.17
2019-04-04T10:55:38.997Z,2.40
2019-04-04T10:58:07.350Z,2.10
2019-04-04T11:00:35.526Z,1.60
2019-04-04T11:03:03.576Z,1.53
2019-04-04T11:05:31.614Z,1.60
2019-04-04T11:07:59.677Z,1.30
2019-04-04T11:10:27.718Z,2.00
2019-04-04T11:12:55.794Z,1.33
2019-04-04T11:15:23.838Z,1.30
2019-04-04T11:17:51.886Z,1.50
2019-04-04T11:20:19.947Z,1.80
2019-04-04T11:22:47.996Z,1.77
2019-04-04T11:25:16.054Z,2.03
2019-04-04T11:27:44.161Z,2.40
2019-04-04T11:30:12.265Z,2.30
2019-04-04T11:32:40.313Z,2.30
2019-04-04T11:35:08.434Z,2.57
2019-04-04T11:37:36.479Z,2.80
2019-04-04T11:40:04.600Z,2.90
2019-04-04T11:42:32.683Z,4.07
2019-04-04T11:45:00.723Z,2.70
2019-04-04T11:47:28.774Z,4.00
2019-04-04T11:49:56.822Z,3.03
2019-04-04T11:52:24.859Z,2.67
2019-04-04T11:54:57.056Z,2.93
2019-04-04T11:57:25.114Z,2.60
2019-04-04T11:59:53.222Z,5.00
2019-04-04T12:02:21.559Z,2.67
2019-04-04T12:04:49.678Z,2.77
2019-04-04T12:07:17.722Z,2.70
2019-04-04T12:09:45.761Z,2.83
2019-04-04T12:12:33.175Z,2.70
2019-04-04T12:15:01.214Z,2.90
2019-04-04T12:17:29.277Z,3.40
2019-04-04T12:19:57.328Z,3.13
2019-04-04T12:22:25.379Z,2.63
2019-04-04T12:24:53.418Z,2.60
2019-04-04T12:27:21.497Z,2.53
2019-04-04T12:29:50.015Z,3.57
2019-04-04T12:32:18.059Z,3.60
2019-04-04T12:34:46.115Z,2.53
2019-04-04T12:37:14.162Z,2.13
2019-04-04T12:39:44.385Z,2.20
2019-04-04T12:42:12.018Z,2.47
2019-04-04T12:44:40.070Z,2.30
2019-04-04T12:47:08.123Z,2.30
2019-04-04T12:49:36.175Z,1.90
2019-04-04T12:52:04.383Z,2.23
2019-04-04T12:54:34.081Z,1.83
2019-04-04T12:57:02.223Z,2.03
2019-04-04T12:59:30.278Z,1.97
2019-04-04T13:01:58.339Z,2.40
2019-04-04T13:04:31.601Z,1.97
2019-04-04T13:06:56.166Z,2.10
2019-04-04T13:09:24.216Z,1.97
2019-04-04T13:11:52.262Z,1.60
2019-04-04T13:14:20.336Z,1.60
2019-04-04T13:16:48.359Z,1.60
2019-04-04T13:19:16.425Z,1.70
2019-04-04T13:21:44.485Z,1.70
2019-04-04T13:24:12.597Z,1.90
2019-04-04T13:26:40.646Z,1.33
2019-04-04T13:29:08.702Z,1.97
2019-04-04T13:31:36.746Z,1.83
2019-04-04T13:34:04.835Z,1.77
2019-04-04T13:36:32.887Z,1.70
2019-04-04T13:39:00.930Z,1.73
2019-04-04T13:41:29.014Z,1.97
2019-04-04T13:43:57.057Z,1.87
2019-04-04T13:46:29.174Z,1.90
2019-04-04T13:48:54.898Z,1.73
2019-04-04T13:51:25.516Z,2.00
2019-04-04T13:53:53.734Z,1.70
2019-04-04T13:56:21.802Z,2.10
2019-04-04T13:58:49.835Z,2.10
2019-04-04T14:01:18.157Z,2.10
2019-04-04T14:03:46.266Z,1.60
2019-04-04T14:06:14.310Z,4.17
2019-04-04T14:08:42.362Z,1.70
2019-04-04T14:11:10.424Z,1.90
2019-04-04T14:13:38.583Z,1.60
2019-04-04T14:16:06.629Z,1.40
2019-04-04T14:18:39.787Z,1.50
2019-04-04T14:21:04.530Z,1.40
2019-04-04T14:23:32.578Z,1.80
2019-04-04T14:26:00.754Z,1.30
2019-04-04T14:28:29.319Z,1.40
2019-04-04T14:30:57.514Z,1.20
2019-04-04T14:33:25.578Z,1.30
2019-04-04T14:35:53.619Z,1.80
2019-04-04T14:38:21.676Z,1.30
2019-04-04T14:40:49.795Z,1.10
2019-04-04T14:43:17.831Z,1.33
2019-04-04T14:45:45.918Z,1.03
2019-04-04T14:48:14.041Z,1.60
2019-04-04T14:50:42.084Z,1.40
2019-04-04T14:53:10.118Z,1.27
2019-04-04T14:55:38.171Z,1.37
2019-04-04T14:58:06.226Z,1.53
2019-04-04T15:00:34.265Z,1.50
2019-04-04T15:03:02.366Z,1.40
2019-04-04T15:05:30.398Z,6.03
2019-04-04T15:08:00.895Z,1.97
2019-04-04T15:10:28.222Z,1.40
2019-04-04T15:12:56.263Z,1.40
2019-04-04T15:15:26.305Z,1.50
2019-04-04T15:17:54.081Z,1.20
2019-04-04T15:20:22.174Z,1.73
2019-04-04T15:22:50.198Z,1.63
2019-04-04T15:25:18.263Z,1.90
2019-04-04T15:27:46.301Z,1.90
2019-04-04T15:30:14.518Z,1.80
2019-04-04T15:32:43.292Z,1.83
2019-04-04T15:35:11.433Z,2.33
2019-04-04T15:37:39.479Z,2.33
2019-04-04T15:40:07.694Z,1.97
2019-04-04T15:42:35.746Z,2.30
2019-04-04T15:45:04.709Z,2.30
2019-04-04T15:47:32.747Z,2.13
2019-04-04T15:50:00.795Z,1.97
2019-04-04T15:52:28.846Z,2.70
2019-04-04T15:54:56.898Z,2.60
2019-04-04T15:57:24.958Z,1.93
2019-04-04T15:59:53.066Z,2.37
2019-04-04T16:02:21.106Z,2.00
2019-04-04T16:04:49.215Z,1.87
2019-04-04T16:07:17.258Z,2.00
2019-04-04T16:09:45.299Z,2.30
2019-04-04T16:12:13.370Z,2.63
2019-04-04T16:14:41.500Z,2.40
2019-04-04T16:17:09.548Z,2.00
2019-04-04T16:19:37.594Z,2.10
2019-04-04T16:22:05.647Z,2.10
2019-04-04T16:24:33.734Z,2.20
2019-04-04T16:27:01.803Z,2.10
2019-04-04T16:29:29.834Z,2.00
2019-04-04T16:31:57.908Z,2.40
2019-04-04T16:34:25.944Z,1.90
2019-04-04T16:36:53.986Z,2.17
2019-04-04T16:39:22.044Z,1.77
2019-04-04T16:42:01.705Z,2.30
2019-04-04T16:44:19.882Z,2.17
2019-04-04T16:46:47.919Z,2.03
2019-04-04T16:49:16.006Z,2.00
2019-04-04T16:51:48.427Z,2.20
2019-04-04T16:54:16.506Z,2.00
2019-04-04T16:56:44.554Z,2.13
2019-04-04T16:59:12.615Z,1.87
2019-04-04T17:01:40.651Z,1.90
2019-04-04T17:04:10.816Z,2.23
2019-04-04T17:06:38.919Z,2.10
2019-04-04T17:09:07.442Z,2.10
2019-04-04T17:11:35.484Z,2.00
2019-04-04T17:14:03.595Z,2.03
2019-04-04T17:16:31.654Z,1.73
2019-04-04T17:18:59.698Z,1.97
2019-04-04T17:21:27.765Z,4.27
2019-04-04T17:23:55.827Z,2.07
2019-04-04T17:26:23.938Z,1.80
2019-04-04T17:28:52.386Z,1.40
2019-04-04T17:31:20.498Z,1.80
2019-04-04T17:33:49.455Z,2.00
2019-04-04T17:36:20.596Z,1.80
2019-04-04T17:38:47.295Z,1.80
2019-04-04T17:41:15.347Z,1.83
2019-04-04T17:43:43.882Z,2.00
2019-04-04T17:46:11.914Z,3.07
2019-04-04T17:48:40.256Z,2.40
2019-04-04T17:51:10.234Z,2.30
2019-04-04T17:53:38.632Z,2.30
2019-04-04T17:56:06.715Z,1.73
2019-04-04T17:58:34.761Z,1.90
2019-04-04T18:01:04.374Z,2.30
2019-04-04T18:03:32.435Z,2.17
2019-04-04T18:06:00.490Z,2.20
2019-04-04T18:08:28.535Z,2.17
2019-04-04T18:10:56.570Z,2.70
2019-04-04T18:13:24.630Z,2.70
2019-04-04T18:15:52.703Z,2.40
2019-04-04T18:18:20.755Z,2.60
2019-04-04T18:20:48.826Z,3.00
2019-04-04T18:23:16.891Z,2.97
2019-04-04T18:25:44.914Z,2.63
2019-04-04T18:28:12.988Z,3.13
2019-04-04T18:30:41.029Z,2.83
2019-04-04T18:33:09.359Z,2.93
2019-04-04T18:35:38.333Z,3.00
2019-04-04T18:38:06.910Z,2.90
2019-04-04T18:40:34.958Z,2.87
2019-04-04T18:43:03.003Z,3.07
2019-04-04T18:45:31.053Z,3.00
2019-04-04T18:47:59.089Z,2.70
2019-04-04T18:50:27.170Z,3.30
2019-04-04T18:52:55.210Z,3.13
2019-04-04T18:55:23.281Z,3.60
2019-04-04T18:57:51.405Z,2.87
2019-04-04T19:00:19.632Z,3.47
2019-04-04T19:02:47.728Z,3.03
2019-04-04T19:05:15.811Z,2.80
2019-04-04T19:07:43.850Z,2.93
2019-04-04T19:10:12.115Z,3.33
2019-04-04T19:12:40.150Z,3.17
2019-04-04T19:15:08.440Z,3.60
2019-04-04T19:17:36.529Z,3.30
2019-04-04T19:20:05.999Z,3.47
2019-04-04T19:22:34.027Z,2.93
2019-04-04T19:25:02.086Z,2.93
2019-04-04T19:27:30.138Z,3.17
2019-04-04T19:29:58.407Z,3.70
2019-04-04T19:32:26.452Z,3.93
2019-04-04T19:34:54.506Z,4.13
2019-04-04T19:37:22.582Z,4.30
2019-04-04T19:39:50.684Z,4.63
2019-04-04T19:42:19.047Z,4.73
2019-04-04T19:44:53.318Z,4.30
2019-04-04T19:47:16.884Z,4.70
2019-04-04T19:49:44.932Z,4.40
2019-04-04T19:52:13.011Z,4.77
2019-04-04T19:54:41.094Z,4.70
2019-04-04T19:57:09.177Z,4.67
2019-04-04T19:59:37.248Z,4.83
2019-04-04T20:02:05.297Z,4.43
2019-04-04T20:04:33.364Z,5.00
2019-04-04T20:07:03.625Z,3.90
2019-04-04T20:09:31.192Z,4.93
2019-04-04T20:11:59.236Z,4.90
2019-04-04T20:14:29.044Z,3.90
2019-04-04T20:16:57.206Z,4.33
2019-04-04T20:19:25.319Z,4.07
2019-04-04T20:21:56.235Z,4.03
2019-04-04T20:24:23.166Z,4.40
2019-04-04T20:26:51.221Z,3.93
2019-04-04T20:29:19.549Z,3.87
2019-04-04T20:31:47.588Z,3.77
2019-04-04T20:34:15.630Z,3.90
2019-04-04T20:36:43.692Z,3.50
2019-04-04T20:39:11.741Z,3.90
2019-04-04T20:41:39.782Z,4.07
2019-04-04T20:44:07.843Z,8.73
2019-04-04T20:46:35.890Z,5.80
2019-04-04T20:49:03.936Z,4.90
2019-04-04T20:51:33.367Z,4.73
2019-04-04T20:54:01.469Z,4.17
2019-04-04T20:56:29.510Z,4.33
2019-04-04T20:58:57.567Z,6.10
2019-04-04T21:01:25.678Z,5.00
2019-04-04T21:04:13.246Z,4.07
2019-04-04T21:06:41.346Z,4.50
2019-04-04T21:09:10.480Z,4.67
2019-04-04T21:11:38.894Z,4.57
2019-04-04T21:14:06.995Z,5.13
2019-04-04T21:16:35.131Z,4.77
2019-04-04T21:19:03.290Z,4.20
2019-04-04T21:21:31.430Z,4.63
2019-04-04T21:23:59.490Z,4.73
2019-04-04T21:26:27.862Z,4.93
2019-04-04T21:28:55.918Z,4.43
2019-04-04T21:31:24.095Z,4.87
2019-04-04T21:33:52.203Z,4.47
2019-04-04T21:36:20.521Z,4.43
2019-04-04T21:38:49.171Z,4.00
2019-04-04T21:41:17.246Z,4.83
2019-04-04T21:43:45.355Z,4.70
2019-04-04T21:46:13.422Z,5.23
2019-04-04T21:48:41.464Z,4.70
2019-04-04T21:51:11.928Z,5.03
2019-04-04T21:53:40.090Z,5.17
2019-04-04T21:56:08.145Z,5.10
2019-04-04T21:58:36.178Z,5.00
2019-04-04T22:01:04.400Z,5.30
2019-04-04T22:03:32.527Z,5.13
2019-04-04T22:06:00.921Z,5.57
2019-04-04T22:08:29.042Z,5.87
2019-04-04T22:10:57.234Z,5.83
2019-04-04T22:13:25.291Z,6.10
2019-04-04T22:15:53.370Z,5.40
2019-04-04T22:18:21.454Z,5.10
2019-04-04T22:20:49.558Z,6.10
2019-04-04T22:23:17.990Z,6.33
2019-04-04T22:25:46.047Z,6.17
2019-04-04T22:28:14.112Z,6.20
2019-04-04T22:30:42.824Z,6.23
2019-04-04T22:33:10.890Z,5.53
2019-04-04T22:35:38.933Z,5.57
2019-04-04T22:38:07.083Z,6.37
2019-04-04T22:40:35.133Z,6.27
2019-04-04T22:43:03.190Z,6.00
2019-04-04T22:45:31.234Z,5.73
2019-04-04T22:47:59.607Z,5.90
2019-04-04T22:50:27.694Z,6.27
2019-04-04T22:52:55.757Z,6.60
2019-04-04T22:55:26.432Z,5.83
2019-04-04T22:57:53.566Z,6.37
2019-04-04T23:00:21.664Z,7.07
2019-04-04T23:02:49.778Z,6.40
2019-04-04T23:05:17.929Z,11.33
2019-04-04T23:07:45.990Z,11.23
2019-04-04T23:10:14.119Z,7.70
2019-04-04T23:12:42.186Z,9.00
2019-04-04T23:15:10.311Z,8.63
2019-04-04T23:17:38.371Z,9.17
2019-04-04T23:20:08.211Z,8.63
2019-04-04T23:22:36.282Z,7.97
2019-04-04T23:25:07.086Z,6.43
2019-04-04T23:27:35.128Z,6.47
2019-04-04T23:30:03.795Z,6.03
2019-04-04T23:32:31.835Z,5.17
2019-04-04T23:34:59.912Z,6.20
2019-04-04T23:37:27.964Z,5.87
2019-04-04T23:39:56.038Z,5.97
2019-04-04T23:42:24.110Z,5.73
2019-04-04T23:45:00.927Z,6.10
2019-04-04T23:47:21.954Z,6.27
2019-04-04T23:49:49.998Z,6.77
2019-04-04T23:52:18.066Z,6.53
2019-04-04T23:54:46.115Z,6.90
2019-04-04T23:57:14.171Z,7.37
2019-04-04T23:59:42.259Z,6.43
